Time;durP1;ratioP1;P1;durP2;ratioP2;P2;SDS_P1;SDS_P2;PMS_P1;PMS_P2;Temp;Humidity;BMP_temperature;BMP_pressure;BME280_temperature;BME280_humidity;BME280_pressure;Samples;Min_cycle;Max_cycle;Signal;HPM_P1;HPM_P2
2022/03/19 00:01:45;;;;;;;20.98;10.48;;;;;;;5.62;100.00;67405.44;5006234;28;20053;-82
2022/03/19 00:04:10;;;;;;;21.25;10.68;;;;;;;;;;5006081;28;20069;-82
2022/03/19 00:06:39;;;;;;;20.73;10.45;;;;;;;5.53;100.00;67390.00;5006624;28;20045;-82
2022/03/19 00:09:09;;;;;;;22.55;11.35;;;;;;;5.49;100.00;67390.75;5029381;28;20029;-83
2022/03/19 00:11:34;;;;;;;19.35;9.68;;;;;;;5.45;100.00;67383.03;5003104;28;20121;-80
2022/03/19 00:14:00;;;;;;;19.40;10.68;;;;;;;;;;5023895;28;20188;-82
2022/03/19 00:16:25;;;;;;;25.15;10.50;;;;;;;5.44;100.00;67382.47;4999894;28;20049;-80
2022/03/19 00:18:51;;;;;;;24.70;11.50;;;;;;;5.39;100.00;67380.00;5011617;28;20056;-80
2022/03/19 00:21:16;;;;;;;21.13;11.40;;;;;;;5.42;100.00;67377.56;5011486;28;20047;-81
2022/03/19 00:23:42;;;;;;;23.60;11.45;;;;;;;5.39;100.00;67376.81;5017805;28;20047;-81
2022/03/19 00:26:08;;;;;;;25.33;10.70;;;;;;;;;;5028496;28;20030;-79
2022/03/19 00:28:35;;;;;;;19.20;10.32;;;;;;;5.30;100.00;67364.00;5016880;28;20054;-80
2022/03/19 00:31:03;;;;;;;22.38;10.48;;;;;;;5.25;100.00;67361.56;5005731;28;20046;-79
2022/03/19 00:33:29;;;;;;;24.33;11.18;;;;;;;5.24;100.00;67362.50;4999908;28;20069;-80
2022/03/19 00:35:54;;;;;;;26.88;11.18;;;;;;;5.31;100.00;67367.78;5017749;28;20046;-81
2022/03/19 00:38:21;;;;;;;23.33;12.15;;;;;;;5.31;100.00;67368.31;4997092;28;20798;-81
2022/03/19 00:40:47;;;;;;;26.33;11.00;;;;;;;;;;4998653;28;20516;-82
2022/03/19 00:43:13;;;;;;;23.65;10.68;;;;;;;5.17;100.00;67349.88;5019646;28;20124;-82
2022/03/19 00:45:39;;;;;;;25.00;12.40;;;;;;;5.23;100.00;67359.28;5005050;28;20133;-82
2022/03/19 00:48:05;;;;;;;21.95;12.23;;;;;;;5.19;100.00;67352.13;5007583;28;20049;-80
2022/03/19 00:50:30;;;;;;;24.92;12.25;;;;;;;5.21;100.00;67354.41;5008488;28;20049;-81
2022/03/19 00:52:58;;;;;;;25.70;11.55;;;;;;;5.12;100.00;67344.81;5018289;28;20521;-79
2022/03/19 00:55:23;;;;;;;27.88;12.90;;;;;;;5.07;100.00;67339.16;5018361;28;20046;-80
2022/03/19 00:57:49;;;;;;;28.70;14.88;;;;;;;;;;4979961;28;20072;-81
2022/03/19 01:00:18;;;;;;;28.33;13.60;;;;;;;5.07;100.00;67344.44;5019230;28;20591;-80
2022/03/19 01:02:44;;;;;;;29.55;14.50;;;;;;;5.06;100.00;67343.28;5001151;28;20065;-79
2022/03/19 01:05:11;;;;;;;28.85;12.90;;;;;;;5.01;100.00;67331.81;4998439;28;21886;-80
2022/03/19 01:07:44;;;;;;;31.33;14.07;;;;;;;4.94;100.00;67324.47;5000329;28;20050;-82
2022/03/19 01:10:12;;;;;;;25.27;13.38;;;;;;;4.93;100.00;67323.91;5000632;28;20097;-81
2022/03/19 01:12:37;;;;;;;31.25;14.60;;;;;;;;;;5000942;28;20052;-81
2022/03/19 01:15:03;;;;;;;31.38;14.02;;;;;;;4.92;100.00;67327.47;5015992;28;20057;-81
2022/03/19 01:17:29;;;;;;;30.15;15.20;;;;;;;4.90;100.00;67325.22;5009466;28;20124;-80
2022/03/19 01:19:54;;;;;;;29.65;14.57;;;;;;;4.93;100.00;67325.97;5001643;28;20151;-80
2022/03/19 01:22:24;;;;;;;33.25;14.52;;;;;;;4.88;100.00;67317.69;5002363;28;20056;-82
2022/03/19 01:24:50;;;;;;;29.23;14.27;;;;;;;4.86;100.00;67318.63;5011283;28;20128;-81
2022/03/19 01:27:17;;;;;;;26.52;13.85;;;;;;;4.79;100.00;67310.16;5003242;28;20110;-81
2022/03/19 01:29:42;;;;;;;30.15;13.65;;;;;;;4.62;100.00;67294.72;4992742;28;20045;-81
2022/03/19 01:32:09;;;;;;;29.52;15.88;;;;;;;4.67;100.00;67300.38;4998781;28;20141;-81
2022/03/19 01:34:36;;;;;;;32.60;15.88;;;;;;;4.67;100.00;67297.75;4997184;28;20061;-81
2022/03/19 01:37:02;;;;;;;30.83;14.82;;;;;;;4.72;100.00;67303.38;5016312;28;20053;-82
2022/03/19 01:39:27;;;;;;;32.15;15.68;;;;;;;;;;4987828;28;20038;-80
2022/03/19 01:41:54;;;;;;;31.23;15.93;;;;;;;4.74;100.00;67305.06;4986912;28;20092;-81
2022/03/19 01:44:21;;;;;;;31.27;16.38;;;;;;;4.78;100.00;67312.25;5016379;28;20057;-82
2022/03/19 01:47:01;;;;;;;28.05;14.50;;;;;;;4.81;100.00;67309.78;5012308;28;20053;-80
2022/03/19 01:49:29;;;;;;;31.90;15.68;;;;;;;4.72;100.00;67300.75;5000786;28;20206;-82
2022/03/19 01:51:55;;;;;;;34.38;15.80;;;;;;;4.69;100.00;67302.06;5001275;28;20046;-80
2022/03/19 01:54:31;;;;;;;35.15;14.70;;;;;;;4.71;100.00;67302.25;5019528;28;20041;-81
2022/03/19 01:56:58;;;;;;;27.95;14.70;;;;;;;4.78;100.00;67309.03;5004974;28;20695;-82
2022/03/19 01:59:27;;;;;;;35.28;16.83;;;;;;;4.82;100.00;67310.91;5021005;28;20485;-82
2022/03/19 02:01:53;;;;;;;29.73;15.43;;;;;;;4.84;100.00;67313.75;5002871;28;20049;-79
2022/03/19 02:04:19;;;;;;;31.92;16.02;;;;;;;4.84;100.00;67316.38;5005442;28;20409;-80
2022/03/19 02:06:46;;;;;;;35.53;15.38;;;;;;;4.85;100.00;67314.84;5001939;28;20140;-79
2022/03/19 02:09:13;;;;;;;32.92;16.20;;;;;;;4.86;100.00;67318.63;5004932;28;20041;-80
2022/03/19 02:11:38;;;;;;;38.25;15.70;;;;;;;4.87;100.00;67322.41;5020880;28;20066;-80
2022/03/19 02:14:05;;;;;;;33.88;15.70;;;;;;;4.86;100.00;67321.28;5022922;28;20090;-82
2022/03/19 02:16:30;;;;;;;32.90;15.52;;;;;;;;;;5016972;28;22249;-80
2022/03/19 02:18:59;;;;;;;34.00;14.77;;;;;;;4.87;100.00;67319.19;5001858;28;20077;-81
2022/03/19 02:21:50;;;;;;;35.42;16.10;;;;;;;4.84;100.00;67315.81;5019623;28;20048;-81
2022/03/19 02:27:03;;;;;;;28.33;14.65;;;;;;;4.76;100.00;67307.34;5005443;28;20397;-81
2022/03/19 02:29:29;;;;;;;32.92;16.02;;;;;;;4.77;100.00;67307.91;5004345;28;20038;-80
2022/03/19 02:31:57;;;;;;;32.17;15.40;;;;;;;4.77;100.00;67308.47;5015347;28;20551;-80
2022/03/19 02:34:24;;;;;;;36.13;15.13;;;;;;;4.71;100.00;67299.63;4996954;28;20050;-81
2022/03/19 02:36:50;;;;;;;32.15;15.57;;;;;;;4.65;100.00;67292.84;5010079;28;20049;-81
2022/03/19 02:39:17;;;;;;;30.85;13.93;;;;;;;4.62;100.00;67289.44;4987040;28;20512;-83
2022/03/19 02:41:43;;;;;;;29.75;14.75;;;;;;;;;;5010511;28;20041;-82
2022/03/19 02:44:09;;;;;;;33.00;16.00;;;;;;;4.62;100.00;67289.44;4993238;28;20046;-81
2022/03/19 02:46:38;;;;;;;31.67;16.08;;;;;;;4.59;100.00;67286.06;5015437;28;20490;-81
2022/03/19 02:49:04;;;;;;;24.95;13.60;;;;;;;4.48;100.00;67274.22;5011695;28;20172;-82
2022/03/19 02:51:33;;;;;;;26.83;14.25;;;;;;;4.42;100.00;67267.44;5006944;28;20169;-80
2022/03/19 02:53:58;;;;;;;29.15;15.18;;;;;;;4.35;100.00;67259.53;5017949;28;20053;-82
2022/03/19 02:56:23;;;;;;;32.22;16.05;;;;;;;4.33;100.00;67262.56;5015721;28;20487;-81
2022/03/19 02:58:49;;;;;;;35.42;14.15;;;;;;;4.23;100.00;67248.63;5001419;28;20049;-81
2022/03/19 03:01:16;;;;;;;30.52;14.90;;;;;;;4.26;100.00;67252.59;5002136;28;20046;-81
2022/03/19 03:03:43;;;;;;;32.53;16.15;;;;;;;4.32;100.00;67261.44;5014989;28;20462;-81
2022/03/19 03:06:08;;;;;;;34.75;17.05;;;;;;;4.27;100.00;67255.78;5000740;28;20049;-82
2022/03/19 03:08:34;;;;;;;36.20;17.45;;;;;;;4.20;100.00;67243.19;5001695;28;20072;-81
2022/03/19 03:10:59;;;;;;;33.85;16.25;;;;;;;4.17;100.00;67241.84;5021477;28;20048;-80
2022/03/19 03:13:24;;;;;;;33.08;16.58;;;;;;;4.15;100.00;67247.50;5024250;28;20045;-80
2022/03/19 03:15:50;;;;;;;34.30;18.35;;;;;;;;;;4999677;28;20057;-81
2022/03/19 03:18:15;;;;;;;31.77;16.88;;;;;;;4.18;100.00;67243.56;5002962;28;20662;-82
2022/03/19 03:20:41;;;;;;;33.17;17.67;;;;;;;4.11;100.00;67235.09;5006896;28;20041;-82
2022/03/19 03:23:06;;;;;;;33.78;18.40;;;;;;;4.09;100.00;67230.22;5001346;28;20046;-81
2022/03/19 03:25:33;;;;;;;34.92;17.30;;;;;;;4.11;100.00;67235.66;5005624;28;20048;-83
2022/03/19 03:27:58;;;;;;;32.25;18.60;;;;;;;4.12;100.00;67242.06;5018144;28;20053;-82
2022/03/19 03:30:24;;;;;;;29.88;17.08;;;;;;;4.11;100.00;67237.72;5026530;28;20049;-81
2022/03/19 03:32:49;;;;;;;29.73;18.13;;;;;;;4.10;100.00;67237.16;4999538;28;20045;-83
2022/03/19 03:35:15;;;;;;;36.72;18.38;;;;;;;4.08;100.00;67232.25;5003022;28;20096;-82
2022/03/19 03:37:40;;;;;;;35.05;17.45;;;;;;;4.05;100.00;67226.25;5019753;28;20084;-81
2022/03/19 03:40:07;;;;;;;33.70;17.98;;;;;;;4.06;100.00;67230.03;4987615;28;20347;-81
2022/03/19 03:42:33;;;;;;;32.13;18.58;;;;;;;4.04;100.00;67225.13;5023692;28;20482;-80
2022/03/19 03:44:58;;;;;;;34.03;17.42;;;;;;;4.02;100.00;67222.84;5016385;28;20107;-79
2022/03/19 03:47:26;;;;;;;34.42;18.13;;;;;;;4.02;100.00;67225.50;4988921;28;20042;-80
2022/03/19 03:49:53;;;;;;;36.72;18.58;;;;;;;4.01;100.00;67222.28;5001849;28;20073;-80
2022/03/19 03:52:19;;;;;;;35.90;19.65;;;;;;;3.97;100.00;67217.78;5018575;28;20041;-83
2022/03/19 03:54:46;;;;;;;33.25;19.48;;;;;;;;;;5005069;28;20112;-80
2022/03/19 03:57:12;;;;;;;31.80;19.40;;;;;;;3.90;100.00;67215.16;5027216;28;20441;-81
2022/03/19 03:59:38;;;;;;;38.65;19.00;;;;;;;3.89;100.00;67210.84;4997987;28;20528;-80
2022/03/19 04:02:03;;;;;;;34.50;18.80;;;;;;;3.88;100.00;67212.88;4998165;28;20049;-80
2022/03/19 04:04:29;;;;;;;34.92;18.88;;;;;;;;;;5020855;28;20141;-80
2022/03/19 04:06:54;;;;;;;34.20;19.35;;;;;;;3.79;100.00;67203.28;5017585;28;20063;-80
2022/03/19 04:09:21;;;;;;;29.17;16.70;;;;;;;3.72;100.00;67194.84;5017186;28;20056;-81
2022/03/19 04:11:47;;;;;;;37.28;18.10;;;;;;;3.70;100.00;67190.50;5018801;28;20049;-82
2022/03/19 04:14:13;;;;;;;33.25;19.90;;;;;;;3.64;100.00;67180.56;5016631;28;20165;-81
2022/03/19 04:16:39;;;;;;;37.88;19.02;;;;;;;3.58;100.00;67182.25;4982065;28;20050;-81
2022/03/19 04:19:04;;;;;;;37.25;20.45;;;;;;;3.56;100.00;67174.72;5018726;28;20152;-80
2022/03/19 04:21:30;;;;;;;40.78;19.58;;;;;;;3.54;100.00;67177.72;5016084;28;20128;-79
2022/03/19 04:23:55;;;;;;;39.42;20.30;;;;;;;3.51;100.00;67169.66;5017048;28;20041;-81
2022/03/19 04:26:21;;;;;;;37.30;21.30;;;;;;;3.48;100.00;67166.28;4999555;28;20041;-81
2022/03/19 04:28:47;;;;;;;35.08;20.80;;;;;;;3.49;100.00;67169.47;4995571;28;20045;-81
2022/03/19 04:31:13;;;;;;;39.25;21.67;;;;;;;3.48;100.00;67168.31;5017280;28;20084;-81
2022/03/19 04:33:40;;;;;;;40.38;21.05;;;;;;;3.48;100.00;67168.91;4996722;28;20046;-80
2022/03/19 04:39:00;;;;;;;33.55;19.95;;;;;;;3.43;100.00;67160.63;4992912;28;20061;-81
2022/03/19 04:41:26;;;;;;;38.75;19.10;;;;;;;3.31;100.00;67150.28;5022039;28;20140;-80
2022/03/19 04:43:53;;;;;;;35.00;20.00;;;;;;;3.34;100.00;67151.03;5015064;28;20361;-81
2022/03/19 04:46:19;;;;;;;42.95;20.65;;;;;;;3.28;100.00;67146.91;5007246;28;20041;-81
2022/03/19 04:48:45;;;;;;;40.28;20.73;;;;;;;3.22;100.00;67137.50;4999682;28;20108;-81
2022/03/19 04:51:16;;;;;;;34.78;20.13;;;;;;;3.22;100.00;67134.88;5011832;28;20471;-81
2022/03/19 04:53:42;;;;;;;32.75;19.73;;;;;;;;;;5001144;28;20114;-80
2022/03/19 04:56:11;;;;;;;38.95;20.08;;;;;;;3.20;100.00;67132.06;5001325;28;20045;-82
2022/03/19 04:58:37;;;;;;;34.30;19.60;;;;;;;3.22;100.00;67137.50;5013780;28;20524;-81
2022/03/19 05:01:02;;;;;;;32.88;18.80;;;;;;;3.19;100.00;67131.47;5004747;28;20049;-80
2022/03/19 05:03:27;;;;;;;34.40;18.75;;;;;;;3.24;100.00;67139.19;5025179;28;20051;-81
2022/03/19 05:05:53;;;;;;;29.60;16.67;;;;;;;3.13;100.00;67129.97;5020718;28;20452;-80
2022/03/19 05:08:18;;;;;;;30.25;16.75;;;;;;;3.02;100.00;67112.31;5009650;28;20048;-80
2022/03/19 05:13:28;;;;;;;34.47;16.73;;;;;;;2.98;100.00;67110.44;5013728;28;20053;-82
2022/03/19 05:15:54;;;;;;;34.72;17.27;;;;;;;2.94;100.00;67107.06;5000196;28;20053;-81
2022/03/19 05:18:19;;;;;;;31.70;17.10;;;;;;;2.93;100.00;67105.94;5004734;28;20137;-81
2022/03/19 05:20:45;;;;;;;30.95;16.85;;;;;;;2.97;100.00;67109.88;5012576;28;20120;-80
2022/03/19 05:23:11;;;;;;;30.83;16.23;;;;;;;2.93;100.00;67108.00;4986076;28;20232;-82
2022/03/19 05:25:39;;;;;;;32.60;15.57;;;;;;;2.84;100.00;67098.41;4999487;28;20038;-81
2022/03/19 05:28:04;;;;;;;22.85;15.93;;;;;;;2.79;100.00;67092.19;5024712;28;20069;-81
2022/03/19 05:30:31;;;;;;;30.17;16.77;;;;;;;2.92;100.00;67102.16;5005007;28;20072;-80
2022/03/19 05:32:58;;;;;;;31.17;17.33;;;;;;;2.96;100.00;67105.56;5020110;28;20053;-80
2022/03/19 05:35:24;;;;;;;36.45;16.67;;;;;;;2.95;100.00;67110.25;5019251;28;20145;-80
2022/03/19 05:37:50;;;;;;;33.53;17.45;;;;;;;3.00;100.00;67112.69;4996627;28;20395;-80
2022/03/19 05:40:17;;;;;;;36.50;17.73;;;;;;;2.93;100.00;67103.31;4981634;28;20048;-82
2022/03/19 05:42:43;;;;;;;34.40;17.80;;;;;;;2.91;100.00;67101.06;4995220;28;20089;-80
2022/03/19 05:45:10;;;;;;;31.55;16.67;;;;;;;2.93;100.00;67108.00;5013333;28;20038;-80
2022/03/19 05:47:40;;;;;;;31.13;15.82;;;;;;;2.86;100.00;67100.66;5012502;28;20173;-82
2022/03/19 05:50:07;;;;;;;30.63;17.35;;;;;;;2.92;100.00;67101.63;4984895;28;20124;-80
2022/03/19 05:52:33;;;;;;;31.98;14.15;;;;;;;2.79;100.00;67092.78;5006724;28;20041;-79
2022/03/19 05:54:59;;;;;;;31.60;13.57;;;;;;;2.83;100.00;67097.28;5016567;28;20092;-80
2022/03/19 05:57:25;;;;;;;29.73;13.57;;;;;;;2.77;100.00;67089.97;5003599;28;20040;-81
2022/03/19 05:59:51;;;;;;;24.10;12.40;;;;;;;2.80;100.00;67091.28;5009353;28;20046;-82
2022/03/19 06:02:16;;;;;;;27.27;14.27;;;;;;;2.95;100.00;67107.63;5007376;28;20037;-81
2022/03/19 06:04:42;;;;;;;22.65;13.63;;;;;;;2.98;100.00;67110.44;5012115;28;20094;-80
2022/03/19 06:07:08;;;;;;;24.73;12.25;;;;;;;2.86;100.00;67100.66;5008100;28;20175;-80
2022/03/19 06:09:33;;;;;;;21.92;11.85;;;;;;;2.80;100.00;67093.34;5013336;28;20046;-79
2022/03/19 06:11:59;;;;;;;25.50;10.70;;;;;;;;;;5005116;28;20061;-79
2022/03/19 06:14:24;;;;;;;25.40;11.18;;;;;;;2.83;100.00;67094.66;5001383;28;20044;-81
2022/03/19 06:16:50;;;;;;;20.38;11.40;;;;;;;2.88;100.00;67097.09;5021215;28;20111;-81
2022/03/19 06:19:16;;;;;;;20.38;10.95;;;;;;;2.87;100.00;67101.78;5001598;28;20042;-81
2022/03/19 06:21:42;;;;;;;24.33;13.25;;;;;;;2.97;100.00;67112.50;5024366;28;20042;-80
2022/03/19 06:24:09;;;;;;;28.63;12.07;;;;;;;2.96;100.00;67108.75;5003635;28;20112;-82
2022/03/19 06:26:35;;;;;;;17.33;9.23;;;;;;;2.94;100.00;67104.44;5007845;28;20050;-81
2022/03/19 06:29:00;;;;;;;24.23;11.23;;;;;;;3.03;100.00;67116.09;4991696;28;20038;-81
2022/03/19 06:31:26;;;;;;;25.80;11.32;;;;;;;3.02;100.00;67117.56;5027594;28;20486;-81
2022/03/19 06:33:51;;;;;;;19.88;12.23;;;;;;;3.11;100.00;67125.09;5028870;28;20401;-80
2022/03/19 06:39:17;;;;;;;23.40;10.43;;;;;;;3.21;100.00;67136.38;4905369;29;20071;-80
2022/03/19 06:41:44;;;;;;;18.88;10.75;;;;;;;3.30;100.00;67143.88;4967329;28;20502;-80
2022/03/19 06:44:09;;;;;;;18.80;11.38;;;;;;;3.37;100.00;67157.06;5006003;28;20095;-80
2022/03/19 06:46:34;;;;;;;21.27;10.82;;;;;;;3.45;100.00;67170.19;5022328;28;20428;-80
2022/03/19 06:49:01;;;;;;;22.58;10.88;;;;;;;3.58;100.00;67177.53;5021134;28;20061;-80
2022/03/19 06:51:26;;;;;;;22.23;10.88;;;;;;;3.75;100.00;67198.78;5006064;28;20049;-80
2022/03/19 06:53:52;;;;;;;20.27;11.50;;;;;;;3.85;100.00;67209.50;5022191;28;20042;-80
2022/03/19 06:56:18;;;;;;;25.33;10.75;;;;;;;3.91;100.00;67211.00;5020870;28;20148;-80
2022/03/19 06:58:43;;;;;;;19.63;10.05;;;;;;;4.02;100.00;67223.41;5012285;28;20042;-80
2022/03/19 07:01:14;;;;;;;17.73;8.38;;;;;;;4.10;100.00;67234.53;5003245;28;20049;-80
2022/03/19 07:03:42;;;;;;;21.02;9.38;;;;;;;4.28;100.00;67257.47;5008227;28;20053;-80
2022/03/19 07:06:12;;;;;;;19.70;8.88;;;;;;;4.42;100.00;67270.06;5001634;28;20053;-81
2022/03/19 07:08:38;;;;;;;19.75;9.07;;;;;;;4.59;100.00;67285.50;5008391;28;20045;-81
2022/03/19 07:11:04;;;;;;;14.73;6.97;;;;;;;4.75;100.00;67309.41;5018928;28;20561;-80
2022/03/19 07:13:31;;;;;;;15.40;6.55;;;;;;;4.82;100.00;67313.56;5019600;28;20115;-81
2022/03/19 07:15:57;;;;;;;17.02;7.13;;;;;;;4.98;100.00;67334.81;4993925;28;20069;-80
2022/03/19 07:18:23;;;;;;;17.25;7.18;;;;;;;;;;5006646;28;20497;-81
2022/03/19 07:20:50;;;;;;;16.42;8.32;;;;;;;5.20;100.00;67359.09;5008208;28;20155;-81
2022/03/19 07:23:16;;;;;;;17.92;7.68;;;;;;;5.30;100.00;67367.22;5006674;28;20042;-80
2022/03/19 07:25:41;;;;;;;17.08;6.45;;;;;;;;;;5020400;28;20072;-80
2022/03/19 07:28:12;;;;;;;14.25;7.00;;;;;;;5.49;98.45;67385.47;5017567;28;20649;-81
2022/03/19 07:30:39;;;;;;;12.98;5.68;;;;;;;5.55;96.50;67394.91;5003286;28;20450;-81
2022/03/19 07:33:05;;;;;;;21.17;7.40;;;;;;;5.64;96.05;67402.41;5016784;28;20092;-80
2022/03/19 07:35:31;;;;;;;14.50;5.95;;;;;;;5.73;94.53;67411.47;5001719;28;20050;-81
2022/03/19 07:38:00;;;;;;;13.90;6.35;;;;;;;5.86;92.91;67426.72;5000441;28;20099;-80
2022/03/19 07:43:12;;;;;;;10.68;4.75;;;;;;;6.03;89.71;67445.38;5019548;28;20184;-81
2022/03/19 07:45:39;;;;;;;11.60;5.25;;;;;;;6.10;89.40;67455.94;5005329;28;20045;-80
2022/03/19 07:48:05;;;;;;;13.52;5.43;;;;;;;6.15;88.66;67461.03;5017393;28;20046;-82
2022/03/19 07:50:33;;;;;;;10.80;4.70;;;;;;;6.22;87.08;67468.94;5020475;28;20042;-82
2022/03/19 07:52:59;;;;;;;9.68;5.03;;;;;;;6.33;87.20;67478.19;5022703;28;20486;-81
2022/03/19 07:55:25;;;;;;;14.07;4.47;;;;;;;6.33;84.72;67478.75;5000591;28;20045;-82
2022/03/19 07:57:52;;;;;;;14.70;5.10;;;;;;;6.43;83.99;67492.13;5007353;28;20111;-81
2022/03/19 08:00:18;;;;;;;12.40;5.05;;;;;;;;;;5027639;28;20045;-81
2022/03/19 08:02:44;;;;;;;11.32;4.10;;;;;;;6.61;84.82;67508.72;5006645;28;20106;-81
2022/03/19 08:05:12;;;;;;;14.95;5.15;;;;;;;6.68;82.85;67516.63;5006185;28;20498;-81
2022/03/19 08:07:38;;;;;;;11.55;4.85;;;;;;;6.76;83.56;67525.66;5017863;28;20143;-81
2022/03/19 08:10:08;;;;;;;11.70;4.63;;;;;;;6.78;82.94;67527.94;5013569;28;20124;-82
2022/03/19 08:12:35;;;;;;;15.07;4.88;;;;;;;6.84;80.83;67537.38;5020746;28;20037;-80
2022/03/19 08:15:05;;;;;;;13.82;4.47;;;;;;;6.93;81.80;67544.91;5004466;28;20037;-81
2022/03/19 08:17:31;;;;;;;13.73;4.97;;;;;;;6.94;81.09;67550.78;4990168;28;20037;-81
2022/03/19 08:19:58;;;;;;;12.95;5.00;;;;;;;6.98;81.52;67550.56;4973337;28;20053;-81
2022/03/19 08:22:24;;;;;;;12.63;5.25;;;;;;;7.05;82.27;67560.00;4989002;28;20038;-81
2022/03/19 08:24:50;;;;;;;12.77;4.82;;;;;;;;;;5010598;28;20425;-82
2022/03/19 08:27:15;;;;;;;9.65;4.28;;;;;;;7.16;78.24;67569.78;5025179;28;20041;-81
2022/03/19 08:29:40;;;;;;;17.70;4.97;;;;;;;7.18;77.41;67575.28;5004467;28;20115;-81
2022/03/19 08:32:08;;;;;;;12.07;4.70;;;;;;;7.26;78.47;67581.13;5006272;28;20069;-81
2022/03/19 08:34:34;;;;;;;8.82;4.10;;;;;;;7.33;77.19;67591.13;5020795;28;20037;-81
2022/03/19 08:37:00;;;;;;;9.23;4.45;;;;;;;7.37;76.67;67593.00;5017160;28;20049;-81
2022/03/19 08:42:11;;;;;;;8.63;3.50;;;;;;;7.44;74.80;67600.91;5021246;28;20044;-82
2022/03/19 08:44:36;;;;;;;11.60;4.32;;;;;;;;;;4999619;28;20479;-81
2022/03/19 08:47:01;;;;;;;9.65;4.10;;;;;;;7.64;74.68;67623.00;4996573;28;20046;-81
2022/03/19 08:49:27;;;;;;;11.02;4.28;;;;;;;7.77;75.09;67639.78;5015651;28;20041;-80
2022/03/19 08:51:52;;;;;;;13.57;5.28;;;;;;;7.76;74.32;67638.66;4986937;28;20052;-81
2022/03/19 08:54:19;;;;;;;12.50;4.55;;;;;;;;;;4978393;28;20306;-82
2022/03/19 08:56:46;;;;;;;11.50;4.07;;;;;;;7.83;73.88;67644.50;4979517;28;20041;-82
2022/03/19 08:59:13;;;;;;;12.27;4.85;;;;;;;7.94;73.50;67656.41;4967286;28;20030;-82
2022/03/19 09:01:39;;;;;;;11.25;4.15;;;;;;;8.01;72.61;67666.41;4986987;28;20535;-82
2022/03/19 09:04:07;;;;;;;13.27;4.55;;;;;;;8.06;72.56;67669.41;5011991;28;20045;-81
2022/03/19 09:06:32;;;;;;;10.88;4.22;;;;;;;8.11;71.52;67675.06;5027029;28;20788;-82
2022/03/19 09:09:00;;;;;;;11.93;4.22;;;;;;;8.27;71.33;67700.59;5013772;28;20068;-81
2022/03/19 09:11:26;;;;;;;15.27;5.30;;;;;;;8.33;70.62;67700.00;5017568;28;20510;-82
2022/03/19 09:13:53;;;;;;;15.07;5.18;;;;;;;8.53;70.28;67721.53;5000538;28;20380;-81
2022/03/19 09:16:19;;;;;;;11.48;3.83;;;;;;;8.54;68.35;67723.22;5006277;28;20061;-82
2022/03/19 09:18:44;;;;;;;11.50;3.58;;;;;;;8.53;67.39;67724.75;4996899;28;20065;-81
2022/03/19 09:21:10;;;;;;;7.35;2.90;;;;;;;;;;4985173;28;20049;-82
2022/03/19 09:23:36;;;;;;;6.07;2.83;;;;;;;8.57;68.22;67726.66;5004153;28;20036;-82
2022/03/19 09:26:02;;;;;;;10.52;3.63;;;;;;;8.69;66.31;67739.66;4999138;28;20709;-81
2022/03/19 09:28:27;;;;;;;10.98;3.42;;;;;;;8.75;67.49;67748.56;5010490;28;20045;-82
2022/03/19 09:30:53;;;;;;;9.20;3.60;;;;;;;8.80;66.42;67751.56;4989436;28;20193;-81
2022/03/19 09:33:18;;;;;;;8.77;3.20;;;;;;;8.94;65.22;67766.84;4992500;28;20042;-81
2022/03/19 09:35:45;;;;;;;7.35;2.63;;;;;;;;;;5004198;28;20560;-82
2022/03/19 09:38:11;;;;;;;7.45;2.80;;;;;;;9.01;61.46;67775.38;5000860;28;20052;-82
2022/03/19 09:40:37;;;;;;;7.95;2.80;;;;;;;9.05;61.07;67784.63;5000230;28;20051;-82
2022/03/19 09:43:03;;;;;;;7.57;3.10;;;;;;;;;;4991335;28;20132;-82
2022/03/19 09:45:29;;;;;;;8.60;2.80;;;;;;;9.22;61.26;67798.59;5014701;28;20125;-82
2022/03/19 09:47:56;;;;;;;6.85;2.00;;;;;;;9.40;58.79;67823.19;4987887;28;20125;-81
2022/03/19 09:50:23;;;;;;;4.82;2.08;;;;;;;9.44;59.42;67822.41;5001082;28;20149;-81
2022/03/19 09:52:57;;;;;;;7.50;3.20;;;;;;;9.48;61.58;67822.19;4994740;28;20045;-83
2022/03/19 09:55:26;;;;;;;8.43;2.40;;;;;;;9.52;59.51;67831.47;5001081;28;20045;-80
2022/03/19 09:57:54;;;;;;;10.65;3.45;;;;;;;9.48;59.54;67826.94;4995489;28;20129;-81
2022/03/19 10:00:22;;;;;;;5.70;2.65;;;;;;;9.57;59.40;67836.56;5017039;28;20084;-82
2022/03/19 10:02:55;;;;;;;9.02;2.63;;;;;;;9.64;58.39;67847.19;5010813;28;20042;-82
2022/03/19 10:10:50;;;;;;;6.57;2.50;;;;;;;;;;4998087;28;20562;-81
2022/03/19 10:13:17;;;;;;;7.38;2.28;;;;;;;9.91;57.62;67875.13;5004661;28;20037;-82
2022/03/19 10:15:43;;;;;;;10.13;2.75;;;;;;;10.19;57.99;67905.19;5005968;28;20180;-82
2022/03/19 10:18:10;;;;;;;6.72;2.47;;;;;;;10.26;56.16;67918.44;5005775;28;20037;-82
2022/03/19 10:20:35;;;;;;;8.77;2.65;;;;;;;;;;5004399;28;20042;-82
2022/03/19 10:23:01;;;;;;;7.95;2.95;;;;;;;10.40;56.37;67923.72;4994716;28;20051;-82
2022/03/19 10:25:27;;;;;;;6.45;2.63;;;;;;;10.42;57.35;67931.31;4995409;28;20041;-82
2022/03/19 10:28:00;;;;;;;7.47;3.10;;;;;;;10.41;57.70;67924.84;4999563;28;20100;-82
2022/03/19 10:30:37;;;;;;;11.52;3.58;;;;;;;10.46;52.81;67935.28;5003150;28;20123;-81
2022/03/19 10:33:08;;;;;;;9.52;2.20;;;;;;;10.59;51.99;67953.28;5012972;28;20124;-82
2022/03/19 10:35:39;;;;;;;6.18;2.08;;;;;;;10.53;52.45;67943.81;4997875;28;20030;-83
2022/03/19 10:38:23;;;;;;;6.63;2.10;;;;;;;;;;4971724;28;20487;-83
2022/03/19 10:40:51;;;;;;;6.05;1.90;;;;;;;;;;5012862;28;20053;-81
2022/03/19 10:43:18;;;;;;;8.45;2.42;;;;;;;;;;5018257;28;20122;-81
2022/03/19 10:45:47;;;;;;;7.43;2.20;;;;;;;10.82;52.22;67976.13;5004543;28;20576;-82
2022/03/19 10:48:17;;;;;;;;;;;;;;;10.95;53.29;67985.00;4998237;28;20061;-82
2022/03/19 10:50:42;;;;;;;9.10;1.98;;;;;;;;;;5004896;28;19925;-81
2022/03/19 10:53:08;;;;;;;6.25;1.63;;;;;;;11.11;49.13;68002.03;5000840;28;20042;-81
2022/03/19 10:55:34;;;;;;;5.97;1.55;;;;;;;11.01;47.23;67996.56;5025131;28;20136;-81
2022/03/19 10:58:01;;;;;;;6.40;1.30;;;;;;;11.09;45.97;68000.31;5000719;28;20148;-82
2022/03/19 11:00:27;;;;;;;8.00;1.88;;;;;;;11.17;48.86;68014.75;4983885;28;20069;-82
2022/03/19 11:03:01;;;;;;;6.43;1.90;;;;;;;11.20;48.83;68018.13;5017725;28;20093;-81
2022/03/19 11:05:28;;;;;;;15.93;2.13;;;;;;;;;;5017568;28;20473;-81
2022/03/19 11:07:54;;;;;;;5.43;1.40;;;;;;;;;;4986843;28;20446;-81
2022/03/19 11:10:20;;;;;;;9.50;1.73;;;;;;;;;;5009875;28;20046;-81
2022/03/19 11:12:52;;;;;;;5.03;1.55;;;;;;;11.31;46.21;68030.06;5037475;28;20049;-81
2022/03/19 11:15:19;;;;;;;6.28;1.70;;;;;;;11.31;46.85;68030.06;4992749;28;20037;-81
2022/03/19 11:17:49;;;;;;;62.60;9.85;;;;;;;11.45;50.65;68037.38;4983409;28;20425;-81
2022/03/19 11:20:15;;;;;;;37.50;6.63;;;;;;;;;;5001698;28;20124;-81
2022/03/19 11:22:44;;;;;;;5.93;2.00;;;;;;;11.49;46.93;68050.50;5000777;28;20046;-82
2022/03/19 11:25:22;;;;;;;;;;;;;;;11.54;49.01;68055.63;5004095;28;20061;-82
2022/03/19 11:27:51;;;;;;;7.22;2.17;;;;;;;11.60;50.87;68061.88;5019405;28;19921;-81
2022/03/19 11:30:25;;;;;;;6.97;1.85;;;;;;;11.70;47.40;68073.78;5012704;28;20068;-81
2022/03/19 11:33:09;;;;;;;4.70;1.63;;;;;;;;;;5014763;28;20048;-81
2022/03/19 11:35:43;;;;;;;12.13;2.58;;;;;;;11.70;47.06;68065.22;4997823;28;20030;-81
2022/03/19 11:38:20;;;;;;;9.00;2.60;;;;;;;;;;5017935;28;20037;-81
2022/03/19 11:40:54;;;;;;;20.50;3.58;;;;;;;11.58;48.58;68062.25;5000292;28;20045;-82
2022/03/19 11:43:31;;;;;;;6.88;2.10;;;;;;;;;;5005982;28;20041;-82
2022/03/19 11:46:02;;;;;;;7.55;2.20;;;;;;;11.64;47.18;68061.06;5019555;28;20076;-82
2022/03/19 11:48:41;;;;;;;5.15;1.90;;;;;;;;;;5003797;28;20045;-81
2022/03/19 11:51:19;;;;;;;6.93;2.28;;;;;;;;;;5019440;28;20409;-81
2022/03/19 11:54:06;;;;;;;5.00;1.77;;;;;;;11.91;45.51;68097.09;5007966;28;20034;-82
2022/03/19 11:56:44;;;;;;;6.60;1.80;;;;;;;;;;5022470;28;20136;-81
2022/03/19 11:59:12;;;;;;;8.18;3.00;;;;;;;12.12;47.43;68114.50;5002532;28;20046;-81
2022/03/19 12:02:05;;;;;;;3.72;1.67;;;;;;;12.27;47.13;68130.97;5009287;28;20061;-82
2022/03/19 12:04:53;;;;;;;6.55;1.98;;;;;;;12.52;46.43;68164.16;5020474;28;20041;-82
2022/03/19 12:07:45;;;;;;;7.60;2.17;;;;;;;12.53;47.58;68160.50;5007063;28;20060;-82